sensor_id;sensor_type;location;lat;lon;timestamp;P1;durP1;ratioP1;P2;durP2;ratioP2
16880;SDS011;8557;52.068;5.198;2022-11-04T00:01:28;5.03;;;1.80;;
16880;SDS011;8557;52.068;5.198;2022-11-04T00:03:54;5.10;;;1.80;;
16880;SDS011;8557;52.068;5.198;2022-11-04T00:06:21;5.30;;;1.90;;
16880;SDS011;8557;52.068;5.198;2022-11-04T00:08:50;4.03;;;1.85;;
16880;SDS011;8557;52.068;5.198;2022-11-04T00:11:17;3.28;;;1.70;;
16880;SDS011;8557;52.068;5.198;2022-11-04T00:14:03;3.85;;;1.95;;
16880;SDS011;8557;52.068;5.198;2022-11-04T00:16:31;6.03;;;1.92;;
16880;SDS011;8557;52.068;5.198;2022-11-04T00:19:15;5.93;;;2.30;;
16880;SDS011;8557;52.068;5.198;2022-11-04T00:21:42;5.82;;;2.00;;
16880;SDS011;8557;52.068;5.198;2022-11-04T00:24:28;3.40;;;2.00;;
16880;SDS011;8557;52.068;5.198;2022-11-04T00:27:09;5.97;;;2.30;;
16880;SDS011;8557;52.068;5.198;2022-11-04T00:29:54;2.63;;;2.08;;
16880;SDS011;8557;52.068;5.198;2022-11-04T00:32:21;4.38;;;2.33;;
16880;SDS011;8557;52.068;5.198;2022-11-04T00:35:06;9.80;;;2.55;;
16880;SDS011;8557;52.068;5.198;2022-11-04T00:37:35;5.70;;;2.03;;
16880;SDS011;8557;52.068;5.198;2022-11-04T00:40:04;3.50;;;2.05;;
16880;SDS011;8557;52.068;5.198;2022-11-04T00:42:32;6.82;;;1.90;;
16880;SDS011;8557;52.068;5.198;2022-11-04T00:44:59;4.05;;;2.22;;
16880;SDS011;8557;52.068;5.198;2022-11-04T00:47:26;4.68;;;1.83;;
16880;SDS011;8557;52.068;5.198;2022-11-04T00:49:53;4.60;;;2.25;;
16880;SDS011;8557;52.068;5.198;2022-11-04T00:52:19;4.85;;;1.90;;
16880;SDS011;8557;52.068;5.198;2022-11-04T00:54:47;4.55;;;1.50;;
16880;SDS011;8557;52.068;5.198;2022-11-04T00:57:15;3.85;;;1.60;;
16880;SDS011;8557;52.068;5.198;2022-11-04T00:59:41;2.97;;;1.50;;
16880;SDS011;8557;52.068;5.198;2022-11-04T01:02:09;5.45;;;1.90;;
16880;SDS011;8557;52.068;5.198;2022-11-04T01:04:37;4.43;;;1.90;;
16880;SDS011;8557;52.068;5.198;2022-11-04T01:07:04;3.38;;;1.67;;
16880;SDS011;8557;52.068;5.198;2022-11-04T01:09:31;2.95;;;1.88;;
16880;SDS011;8557;52.068;5.198;2022-11-04T01:11:58;4.22;;;1.88;;
16880;SDS011;8557;52.068;5.198;2022-11-04T01:14:26;2.85;;;1.70;;
16880;SDS011;8557;52.068;5.198;2022-11-04T01:16:53;4.35;;;2.10;;
16880;SDS011;8557;52.068;5.198;2022-11-04T01:19:20;3.28;;;1.75;;
16880;SDS011;8557;52.068;5.198;2022-11-04T01:21:49;3.92;;;1.50;;
16880;SDS011;8557;52.068;5.198;2022-11-04T01:24:16;4.47;;;1.60;;
16880;SDS011;8557;52.068;5.198;2022-11-04T01:26:44;2.15;;;1.30;;
16880;SDS011;8557;52.068;5.198;2022-11-04T01:29:10;3.25;;;1.83;;
16880;SDS011;8557;52.068;5.198;2022-11-04T01:31:38;3.72;;;1.65;;
16880;SDS011;8557;52.068;5.198;2022-11-04T01:34:05;5.20;;;1.98;;
16880;SDS011;8557;52.068;5.198;2022-11-04T01:36:34;3.33;;;2.10;;
16880;SDS011;8557;52.068;5.198;2022-11-04T01:39:00;1.60;;;1.50;;
16880;SDS011;8557;52.068;5.198;2022-11-04T01:41:28;4.15;;;1.90;;
16880;SDS011;8557;52.068;5.198;2022-11-04T01:43:57;6.18;;;1.85;;
16880;SDS011;8557;52.068;5.198;2022-11-04T01:46:27;2.60;;;1.38;;
16880;SDS011;8557;52.068;5.198;2022-11-04T01:49:00;3.95;;;1.20;;
16880;SDS011;8557;52.068;5.198;2022-11-04T01:51:32;3.17;;;0.90;;
16880;SDS011;8557;52.068;5.198;2022-11-04T01:54:01;2.42;;;1.00;;
16880;SDS011;8557;52.068;5.198;2022-11-04T01:56:30;2.65;;;0.90;;
16880;SDS011;8557;52.068;5.198;2022-11-04T01:58:58;3.58;;;0.90;;
16880;SDS011;8557;52.068;5.198;2022-11-04T02:01:29;3.13;;;0.75;;
16880;SDS011;8557;52.068;5.198;2022-11-04T02:03:57;4.03;;;1.25;;
16880;SDS011;8557;52.068;5.198;2022-11-04T02:06:47;4.75;;;1.10;;
16880;SDS011;8557;52.068;5.198;2022-11-04T02:09:16;1.20;;;0.77;;
16880;SDS011;8557;52.068;5.198;2022-11-04T02:11:44;1.92;;;0.80;;
16880;SDS011;8557;52.068;5.198;2022-11-04T02:14:29;2.50;;;0.75;;
16880;SDS011;8557;52.068;5.198;2022-11-04T02:16:58;4.78;;;0.98;;
16880;SDS011;8557;52.068;5.198;2022-11-04T02:19:38;3.20;;;0.90;;
16880;SDS011;8557;52.068;5.198;2022-11-04T02:25:20;3.20;;;0.80;;
16880;SDS011;8557;52.068;5.198;2022-11-04T02:28:02;1.52;;;0.90;;
16880;SDS011;8557;52.068;5.198;2022-11-04T02:30:49;2.88;;;1.08;;
16880;SDS011;8557;52.068;5.198;2022-11-04T02:33:20;2.67;;;1.00;;
16880;SDS011;8557;52.068;5.198;2022-11-04T02:35:54;4.25;;;1.00;;
16880;SDS011;8557;52.068;5.198;2022-11-04T02:38:30;2.72;;;1.05;;
16880;SDS011;8557;52.068;5.198;2022-11-04T02:41:03;2.17;;;1.00;;
16880;SDS011;8557;52.068;5.198;2022-11-04T02:43:41;1.83;;;1.20;;
16880;SDS011;8557;52.068;5.198;2022-11-04T02:46:16;1.30;;;1.20;;
16880;SDS011;8557;52.068;5.198;2022-11-04T02:48:48;5.63;;;1.10;;
16880;SDS011;8557;52.068;5.198;2022-11-04T02:51:24;3.47;;;1.00;;
16880;SDS011;8557;52.068;5.198;2022-11-04T02:53:57;2.25;;;1.05;;
16880;SDS011;8557;52.068;5.198;2022-11-04T02:56:28;3.63;;;1.13;;
16880;SDS011;8557;52.068;5.198;2022-11-04T02:58:59;2.92;;;1.15;;
16880;SDS011;8557;52.068;5.198;2022-11-04T03:01:32;1.67;;;1.10;;
16880;SDS011;8557;52.068;5.198;2022-11-04T03:04:03;2.88;;;1.10;;
16880;SDS011;8557;52.068;5.198;2022-11-04T03:06:41;3.58;;;1.30;;
16880;SDS011;8557;52.068;5.198;2022-11-04T03:09:10;1.48;;;1.17;;
16880;SDS011;8557;52.068;5.198;2022-11-04T03:11:41;2.38;;;1.02;;
16880;SDS011;8557;52.068;5.198;2022-11-04T03:14:12;2.10;;;1.23;;
16880;SDS011;8557;52.068;5.198;2022-11-04T03:16:43;2.35;;;1.33;;
16880;SDS011;8557;52.068;5.198;2022-11-04T03:19:15;3.50;;;1.35;;
16880;SDS011;8557;52.068;5.198;2022-11-04T03:21:46;2.47;;;1.30;;
16880;SDS011;8557;52.068;5.198;2022-11-04T03:24:19;1.60;;;1.40;;
16880;SDS011;8557;52.068;5.198;2022-11-04T03:26:48;3.80;;;1.40;;
16880;SDS011;8557;52.068;5.198;2022-11-04T03:29:21;1.35;;;1.25;;
16880;SDS011;8557;52.068;5.198;2022-11-04T03:31:56;2.15;;;1.30;;
16880;SDS011;8557;52.068;5.198;2022-11-04T03:34:30;1.83;;;1.50;;
16880;SDS011;8557;52.068;5.198;2022-11-04T03:36:58;3.33;;;1.60;;
16880;SDS011;8557;52.068;5.198;2022-11-04T03:39:25;4.18;;;2.03;;
16880;SDS011;8557;52.068;5.198;2022-11-04T03:41:52;2.97;;;2.10;;
16880;SDS011;8557;52.068;5.198;2022-11-04T03:44:22;5.00;;;2.35;;
16880;SDS011;8557;52.068;5.198;2022-11-04T03:46:50;6.30;;;3.05;;
16880;SDS011;8557;52.068;5.198;2022-11-04T03:49:19;5.78;;;2.90;;
16880;SDS011;8557;52.068;5.198;2022-11-04T03:51:47;3.60;;;2.42;;
16880;SDS011;8557;52.068;5.198;2022-11-04T03:54:14;3.08;;;2.78;;
16880;SDS011;8557;52.068;5.198;2022-11-04T03:56:49;3.42;;;2.80;;
16880;SDS011;8557;52.068;5.198;2022-11-04T03:59:33;4.50;;;3.25;;
16880;SDS011;8557;52.068;5.198;2022-11-04T04:02:26;5.63;;;3.10;;
16880;SDS011;8557;52.068;5.198;2022-11-04T04:05:04;4.95;;;3.80;;
16880;SDS011;8557;52.068;5.198;2022-11-04T04:07:37;4.68;;;3.72;;
16880;SDS011;8557;52.068;5.198;2022-11-04T04:10:10;5.60;;;3.30;;
16880;SDS011;8557;52.068;5.198;2022-11-04T04:12:54;6.25;;;3.63;;
16880;SDS011;8557;52.068;5.198;2022-11-04T04:15:25;6.60;;;3.65;;
16880;SDS011;8557;52.068;5.198;2022-11-04T04:18:00;4.50;;;3.60;;
16880;SDS011;8557;52.068;5.198;2022-11-04T04:20:31;4.40;;;4.00;;
16880;SDS011;8557;52.068;5.198;2022-11-04T04:23:03;7.78;;;4.65;;
16880;SDS011;8557;52.068;5.198;2022-11-04T04:25:53;9.43;;;4.88;;
16880;SDS011;8557;52.068;5.198;2022-11-04T04:28:42;9.90;;;7.45;;
16880;SDS011;8557;52.068;5.198;2022-11-04T04:31:10;12.63;;;8.27;;
16880;SDS011;8557;52.068;5.198;2022-11-04T04:34:01;13.73;;;10.55;;
16880;SDS011;8557;52.068;5.198;2022-11-04T04:36:30;14.43;;;10.15;;
16880;SDS011;8557;52.068;5.198;2022-11-04T04:39:01;17.88;;;11.70;;
16880;SDS011;8557;52.068;5.198;2022-11-04T04:41:48;16.52;;;11.88;;
16880;SDS011;8557;52.068;5.198;2022-11-04T04:44:32;18.15;;;11.60;;
16880;SDS011;8557;52.068;5.198;2022-11-04T04:47:17;16.25;;;12.75;;
16880;SDS011;8557;52.068;5.198;2022-11-04T04:49:50;17.40;;;11.70;;
16880;SDS011;8557;52.068;5.198;2022-11-04T04:52:18;14.30;;;11.18;;
16880;SDS011;8557;52.068;5.198;2022-11-04T04:54:47;14.90;;;10.30;;
16880;SDS011;8557;52.068;5.198;2022-11-04T04:57:14;14.15;;;10.77;;
16880;SDS011;8557;52.068;5.198;2022-11-04T04:59:41;17.90;;;11.50;;
16880;SDS011;8557;52.068;5.198;2022-11-04T05:02:07;17.58;;;10.73;;
16880;SDS011;8557;52.068;5.198;2022-11-04T05:04:34;14.23;;;11.00;;
16880;SDS011;8557;52.068;5.198;2022-11-04T05:07:01;13.43;;;10.95;;
16880;SDS011;8557;52.068;5.198;2022-11-04T05:09:29;18.63;;;11.65;;
16880;SDS011;8557;52.068;5.198;2022-11-04T05:11:56;16.42;;;11.98;;
16880;SDS011;8557;52.068;5.198;2022-11-04T05:14:23;17.40;;;11.13;;
16880;SDS011;8557;52.068;5.198;2022-11-04T05:16:50;18.85;;;11.40;;
16880;SDS011;8557;52.068;5.198;2022-11-04T05:19:17;17.17;;;11.65;;
16880;SDS011;8557;52.068;5.198;2022-11-04T05:21:43;15.30;;;10.80;;
16880;SDS011;8557;52.068;5.198;2022-11-04T05:24:10;15.55;;;10.45;;
16880;SDS011;8557;52.068;5.198;2022-11-04T05:26:38;14.52;;;10.65;;
16880;SDS011;8557;52.068;5.198;2022-11-04T05:29:05;13.10;;;11.23;;
16880;SDS011;8557;52.068;5.198;2022-11-04T05:31:32;14.85;;;12.18;;
16880;SDS011;8557;52.068;5.198;2022-11-04T05:33:58;15.02;;;11.70;;
16880;SDS011;8557;52.068;5.198;2022-11-04T05:36:25;19.75;;;12.88;;
16880;SDS011;8557;52.068;5.198;2022-11-04T05:38:52;18.67;;;12.10;;
16880;SDS011;8557;52.068;5.198;2022-11-04T05:41:20;17.70;;;12.65;;
16880;SDS011;8557;52.068;5.198;2022-11-04T05:43:52;19.02;;;12.60;;
16880;SDS011;8557;52.068;5.198;2022-11-04T05:46:19;26.10;;;15.60;;
16880;SDS011;8557;52.068;5.198;2022-11-04T05:48:46;23.90;;;14.65;;
16880;SDS011;8557;52.068;5.198;2022-11-04T05:51:13;22.20;;;14.77;;
16880;SDS011;8557;52.068;5.198;2022-11-04T05:53:40;20.98;;;14.13;;
16880;SDS011;8557;52.068;5.198;2022-11-04T05:56:07;19.65;;;13.55;;
16880;SDS011;8557;52.068;5.198;2022-11-04T05:58:34;18.60;;;13.57;;
16880;SDS011;8557;52.068;5.198;2022-11-04T06:01:12;17.35;;;13.02;;
16880;SDS011;8557;52.068;5.198;2022-11-04T06:03:47;19.90;;;14.07;;
16880;SDS011;8557;52.068;5.198;2022-11-04T06:06:14;20.90;;;13.93;;
16880;SDS011;8557;52.068;5.198;2022-11-04T06:08:41;21.80;;;14.43;;
16880;SDS011;8557;52.068;5.198;2022-11-04T06:11:07;18.95;;;13.32;;
16880;SDS011;8557;52.068;5.198;2022-11-04T06:13:34;20.15;;;13.82;;
16880;SDS011;8557;52.068;5.198;2022-11-04T06:16:01;22.40;;;14.35;;
16880;SDS011;8557;52.068;5.198;2022-11-04T06:18:29;21.85;;;15.10;;
16880;SDS011;8557;52.068;5.198;2022-11-04T06:21:06;22.42;;;14.57;;
16880;SDS011;8557;52.068;5.198;2022-11-04T06:23:34;22.75;;;14.50;;
16880;SDS011;8557;52.068;5.198;2022-11-04T06:26:01;21.27;;;15.32;;
16880;SDS011;8557;52.068;5.198;2022-11-04T06:28:28;27.10;;;14.65;;
16880;SDS011;8557;52.068;5.198;2022-11-04T06:30:56;21.88;;;14.48;;
16880;SDS011;8557;52.068;5.198;2022-11-04T06:33:24;21.83;;;15.05;;
16880;SDS011;8557;52.068;5.198;2022-11-04T06:35:52;21.77;;;14.65;;
16880;SDS011;8557;52.068;5.198;2022-11-04T06:38:22;23.60;;;16.13;;
16880;SDS011;8557;52.068;5.198;2022-11-04T06:40:49;19.83;;;14.82;;
16880;SDS011;8557;52.068;5.198;2022-11-04T06:43:16;19.80;;;13.68;;
16880;SDS011;8557;52.068;5.198;2022-11-04T06:45:42;49.08;;;15.10;;
16880;SDS011;8557;52.068;5.198;2022-11-04T06:48:09;16.08;;;12.20;;
16880;SDS011;8557;52.068;5.198;2022-11-04T06:50:36;24.73;;;12.45;;
16880;SDS011;8557;52.068;5.198;2022-11-04T06:53:04;32.03;;;13.77;;
16880;SDS011;8557;52.068;5.198;2022-11-04T06:55:31;24.25;;;12.82;;
16880;SDS011;8557;52.068;5.198;2022-11-04T06:57:57;19.50;;;12.00;;
16880;SDS011;8557;52.068;5.198;2022-11-04T07:00:24;16.10;;;11.18;;
16880;SDS011;8557;52.068;5.198;2022-11-04T07:02:51;16.15;;;10.98;;
16880;SDS011;8557;52.068;5.198;2022-11-04T07:05:19;16.63;;;11.32;;
16880;SDS011;8557;52.068;5.198;2022-11-04T07:07:46;14.48;;;10.77;;
16880;SDS011;8557;52.068;5.198;2022-11-04T07:10:15;15.48;;;10.55;;
16880;SDS011;8557;52.068;5.198;2022-11-04T07:12:42;16.27;;;9.82;;
16880;SDS011;8557;52.068;5.198;2022-11-04T07:15:09;14.88;;;8.90;;
16880;SDS011;8557;52.068;5.198;2022-11-04T07:17:36;11.75;;;8.50;;
16880;SDS011;8557;52.068;5.198;2022-11-04T07:20:04;11.52;;;8.48;;
16880;SDS011;8557;52.068;5.198;2022-11-04T07:22:31;16.80;;;8.35;;
16880;SDS011;8557;52.068;5.198;2022-11-04T07:24:58;12.88;;;8.55;;
16880;SDS011;8557;52.068;5.198;2022-11-04T07:27:26;12.65;;;8.13;;
16880;SDS011;8557;52.068;5.198;2022-11-04T07:29:53;13.38;;;8.85;;
16880;SDS011;8557;52.068;5.198;2022-11-04T07:32:19;14.30;;;7.50;;
16880;SDS011;8557;52.068;5.198;2022-11-04T07:34:46;18.25;;;8.27;;
16880;SDS011;8557;52.068;5.198;2022-11-04T07:37:13;12.43;;;8.02;;
16880;SDS011;8557;52.068;5.198;2022-11-04T07:39:40;13.93;;;7.82;;
16880;SDS011;8557;52.068;5.198;2022-11-04T07:42:07;12.05;;;7.43;;
16880;SDS011;8557;52.068;5.198;2022-11-04T07:44:35;11.38;;;7.47;;
16880;SDS011;8557;52.068;5.198;2022-11-04T07:47:02;16.95;;;7.50;;
16880;SDS011;8557;52.068;5.198;2022-11-04T07:49:29;12.73;;;7.13;;
16880;SDS011;8557;52.068;5.198;2022-11-04T07:51:55;14.98;;;7.20;;
16880;SDS011;8557;52.068;5.198;2022-11-04T07:54:22;13.20;;;7.10;;
16880;SDS011;8557;52.068;5.198;2022-11-04T07:56:49;13.15;;;6.95;;
16880;SDS011;8557;52.068;5.198;2022-11-04T07:59:16;11.50;;;6.95;;
16880;SDS011;8557;52.068;5.198;2022-11-04T08:01:44;11.02;;;7.05;;
16880;SDS011;8557;52.068;5.198;2022-11-04T08:04:10;9.40;;;6.85;;
16880;SDS011;8557;52.068;5.198;2022-11-04T08:06:37;13.52;;;8.30;;
16880;SDS011;8557;52.068;5.198;2022-11-04T08:09:04;11.82;;;6.97;;
16880;SDS011;8557;52.068;5.198;2022-11-04T08:11:31;10.38;;;6.97;;
16880;SDS011;8557;52.068;5.198;2022-11-04T08:13:58;9.45;;;6.93;;
16880;SDS011;8557;52.068;5.198;2022-11-04T08:16:28;12.65;;;7.00;;
16880;SDS011;8557;52.068;5.198;2022-11-04T08:18:56;8.57;;;6.47;;
16880;SDS011;8557;52.068;5.198;2022-11-04T08:21:26;12.25;;;7.05;;
16880;SDS011;8557;52.068;5.198;2022-11-04T08:23:54;12.63;;;7.55;;
16880;SDS011;8557;52.068;5.198;2022-11-04T08:26:21;11.90;;;7.72;;
16880;SDS011;8557;52.068;5.198;2022-11-04T08:28:48;11.07;;;6.80;;
16880;SDS011;8557;52.068;5.198;2022-11-04T08:31:15;16.38;;;8.05;;
16880;SDS011;8557;52.068;5.198;2022-11-04T08:33:44;12.20;;;6.95;;
16880;SDS011;8557;52.068;5.198;2022-11-04T08:36:13;12.82;;;7.50;;
16880;SDS011;8557;52.068;5.198;2022-11-04T08:38:42;14.48;;;7.60;;
16880;SDS011;8557;52.068;5.198;2022-11-04T08:41:09;11.27;;;6.65;;
16880;SDS011;8557;52.068;5.198;2022-11-04T08:43:37;10.25;;;7.00;;
16880;SDS011;8557;52.068;5.198;2022-11-04T08:46:05;11.48;;;6.25;;
16880;SDS011;8557;52.068;5.198;2022-11-04T08:48:34;11.88;;;6.70;;
16880;SDS011;8557;52.068;5.198;2022-11-04T08:51:03;11.77;;;6.88;;
16880;SDS011;8557;52.068;5.198;2022-11-04T08:53:33;14.70;;;6.95;;
16880;SDS011;8557;52.068;5.198;2022-11-04T08:56:07;11.77;;;7.00;;
16880;SDS011;8557;52.068;5.198;2022-11-04T08:58:35;11.63;;;6.53;;
16880;SDS011;8557;52.068;5.198;2022-11-04T09:01:02;11.77;;;6.30;;
16880;SDS011;8557;52.068;5.198;2022-11-04T09:03:28;12.05;;;6.95;;
16880;SDS011;8557;52.068;5.198;2022-11-04T09:05:56;9.32;;;6.40;;
16880;SDS011;8557;52.068;5.198;2022-11-04T09:08:23;9.30;;;6.65;;
16880;SDS011;8557;52.068;5.198;2022-11-04T09:10:51;11.95;;;7.13;;
16880;SDS011;8557;52.068;5.198;2022-11-04T09:13:18;15.70;;;7.75;;
16880;SDS011;8557;52.068;5.198;2022-11-04T09:15:45;12.60;;;8.00;;
16880;SDS011;8557;52.068;5.198;2022-11-04T09:18:12;13.50;;;7.55;;
16880;SDS011;8557;52.068;5.198;2022-11-04T09:20:40;11.50;;;7.78;;
16880;SDS011;8557;52.068;5.198;2022-11-04T09:23:07;15.73;;;8.35;;
16880;SDS011;8557;52.068;5.198;2022-11-04T09:25:34;12.60;;;8.10;;
16880;SDS011;8557;52.068;5.198;2022-11-04T09:28:03;16.13;;;8.85;;
16880;SDS011;8557;52.068;5.198;2022-11-04T09:30:30;13.82;;;8.95;;
16880;SDS011;8557;52.068;5.198;2022-11-04T09:32:57;17.98;;;9.25;;
16880;SDS011;8557;52.068;5.198;2022-11-04T09:35:24;16.52;;;8.75;;
16880;SDS011;8557;52.068;5.198;2022-11-04T09:37:51;14.35;;;9.02;;
16880;SDS011;8557;52.068;5.198;2022-11-04T09:40:20;11.43;;;8.45;;
16880;SDS011;8557;52.068;5.198;2022-11-04T09:42:52;15.50;;;8.60;;
16880;SDS011;8557;52.068;5.198;2022-11-04T09:45:29;12.35;;;8.85;;
16880;SDS011;8557;52.068;5.198;2022-11-04T09:47:59;15.73;;;8.55;;
16880;SDS011;8557;52.068;5.198;2022-11-04T09:50:28;11.50;;;7.75;;
16880;SDS011;8557;52.068;5.198;2022-11-04T09:53:12;16.45;;;8.70;;
16880;SDS011;8557;52.068;5.198;2022-11-04T09:55:45;14.65;;;9.13;;
16880;SDS011;8557;52.068;5.198;2022-11-04T09:58:15;17.27;;;9.18;;
16880;SDS011;8557;52.068;5.198;2022-11-04T10:00:45;14.30;;;9.40;;
16880;SDS011;8557;52.068;5.198;2022-11-04T10:03:22;17.35;;;9.52;;
16880;SDS011;8557;52.068;5.198;2022-11-04T10:06:05;14.95;;;9.30;;
16880;SDS011;8557;52.068;5.198;2022-11-04T10:08:47;12.65;;;8.88;;
16880;SDS011;8557;52.068;5.198;2022-11-04T10:11:23;13.80;;;8.50;;
16880;SDS011;8557;52.068;5.198;2022-11-04T10:13:59;13.77;;;10.15;;
16880;SDS011;8557;52.068;5.198;2022-11-04T10:16:44;14.98;;;9.65;;
16880;SDS011;8557;52.068;5.198;2022-11-04T10:19:21;12.82;;;9.40;;
16880;SDS011;8557;52.068;5.198;2022-11-04T10:22:01;12.05;;;8.35;;
16880;SDS011;8557;52.068;5.198;2022-11-04T10:24:33;14.57;;;9.52;;
16880;SDS011;8557;52.068;5.198;2022-11-04T10:27:09;12.70;;;9.35;;
16880;SDS011;8557;52.068;5.198;2022-11-04T10:29:41;12.73;;;8.93;;
16880;SDS011;8557;52.068;5.198;2022-11-04T10:32:12;11.18;;;8.90;;
16880;SDS011;8557;52.068;5.198;2022-11-04T10:34:43;12.38;;;8.57;;
16880;SDS011;8557;52.068;5.198;2022-11-04T10:37:15;12.40;;;8.82;;
16880;SDS011;8557;52.068;5.198;2022-11-04T10:39:43;15.43;;;9.68;;
16880;SDS011;8557;52.068;5.198;2022-11-04T10:42:11;14.23;;;9.18;;
16880;SDS011;8557;52.068;5.198;2022-11-04T10:44:42;13.82;;;8.93;;
16880;SDS011;8557;52.068;5.198;2022-11-04T10:47:14;13.43;;;9.60;;
16880;SDS011;8557;52.068;5.198;2022-11-04T10:52:53;14.38;;;10.18;;
16880;SDS011;8557;52.068;5.198;2022-11-04T10:55:30;14.85;;;10.40;;
16880;SDS011;8557;52.068;5.198;2022-11-04T10:58:07;12.02;;;9.50;;
16880;SDS011;8557;52.068;5.198;2022-11-04T11:00:42;14.93;;;9.55;;
16880;SDS011;8557;52.068;5.198;2022-11-04T11:03:27;14.18;;;9.30;;
16880;SDS011;8557;52.068;5.198;2022-11-04T11:06:21;13.52;;;9.10;;
16880;SDS011;8557;52.068;5.198;2022-11-04T11:08:51;14.20;;;9.65;;
16880;SDS011;8557;52.068;5.198;2022-11-04T11:11:36;12.70;;;9.02;;
16880;SDS011;8557;52.068;5.198;2022-11-04T11:14:13;15.35;;;8.85;;
16880;SDS011;8557;52.068;5.198;2022-11-04T11:16:41;10.65;;;7.80;;
16880;SDS011;8557;52.068;5.198;2022-11-04T11:19:15;10.95;;;7.32;;
16880;SDS011;8557;52.068;5.198;2022-11-04T11:21:44;9.68;;;7.45;;
16880;SDS011;8557;52.068;5.198;2022-11-04T11:24:14;11.38;;;7.72;;
16880;SDS011;8557;52.068;5.198;2022-11-04T11:26:44;13.90;;;7.90;;
16880;SDS011;8557;52.068;5.198;2022-11-04T11:29:17;9.10;;;6.43;;
16880;SDS011;8557;52.068;5.198;2022-11-04T11:31:47;9.73;;;7.10;;
16880;SDS011;8557;52.068;5.198;2022-11-04T11:34:18;9.63;;;6.70;;
16880;SDS011;8557;52.068;5.198;2022-11-04T11:36:50;9.10;;;6.60;;
16880;SDS011;8557;52.068;5.198;2022-11-04T11:39:19;12.38;;;6.80;;
16880;SDS011;8557;52.068;5.198;2022-11-04T11:41:48;11.18;;;6.80;;
16880;SDS011;8557;52.068;5.198;2022-11-04T11:44:19;7.57;;;6.15;;
16880;SDS011;8557;52.068;5.198;2022-11-04T11:46:51;11.57;;;7.32;;
16880;SDS011;8557;52.068;5.198;2022-11-04T11:49:23;10.25;;;6.70;;
16880;SDS011;8557;52.068;5.198;2022-11-04T11:51:53;10.90;;;6.30;;
16880;SDS011;8557;52.068;5.198;2022-11-04T11:54:27;9.95;;;6.35;;
16880;SDS011;8557;52.068;5.198;2022-11-04T11:56:58;8.57;;;6.70;;
16880;SDS011;8557;52.068;5.198;2022-11-04T11:59:32;7.57;;;6.55;;
16880;SDS011;8557;52.068;5.198;2022-11-04T12:02:15;11.82;;;6.53;;
16880;SDS011;8557;52.068;5.198;2022-11-04T12:04:51;12.57;;;5.88;;
16880;SDS011;8557;52.068;5.198;2022-11-04T12:07:22;7.63;;;6.20;;
16880;SDS011;8557;52.068;5.198;2022-11-04T12:10:02;12.05;;;6.90;;
16880;SDS011;8557;52.068;5.198;2022-11-04T12:12:46;13.48;;;6.00;;
16880;SDS011;8557;52.068;5.198;2022-11-04T12:15:35;7.05;;;4.65;;
16880;SDS011;8557;52.068;5.198;2022-11-04T12:18:15;6.07;;;4.03;;
16880;SDS011;8557;52.068;5.198;2022-11-04T12:21:01;9.35;;;4.30;;
16880;SDS011;8557;52.068;5.198;2022-11-04T12:23:35;6.22;;;3.63;;
16880;SDS011;8557;52.068;5.198;2022-11-04T12:26:10;5.45;;;3.65;;
16880;SDS011;8557;52.068;5.198;2022-11-04T12:28:47;7.63;;;3.20;;
16880;SDS011;8557;52.068;5.198;2022-11-04T12:31:29;6.30;;;3.63;;
16880;SDS011;8557;52.068;5.198;2022-11-04T12:34:06;6.15;;;3.45;;
16880;SDS011;8557;52.068;5.198;2022-11-04T12:36:52;4.15;;;3.17;;
16880;SDS011;8557;52.068;5.198;2022-11-04T12:39:29;8.57;;;3.92;;
16880;SDS011;8557;52.068;5.198;2022-11-04T12:42:10;6.72;;;4.25;;
16880;SDS011;8557;52.068;5.198;2022-11-04T12:44:44;6.22;;;4.00;;
16880;SDS011;8557;52.068;5.198;2022-11-04T12:47:22;7.85;;;4.10;;
16880;SDS011;8557;52.068;5.198;2022-11-04T12:50:05;7.43;;;3.92;;
16880;SDS011;8557;52.068;5.198;2022-11-04T12:55:56;6.90;;;4.35;;
16880;SDS011;8557;52.068;5.198;2022-11-04T12:58:33;9.35;;;4.93;;
16880;SDS011;8557;52.068;5.198;2022-11-04T13:01:08;8.02;;;4.50;;
16880;SDS011;8557;52.068;5.198;2022-11-04T13:03:41;7.85;;;4.68;;
16880;SDS011;8557;52.068;5.198;2022-11-04T13:06:14;6.22;;;4.20;;
16880;SDS011;8557;52.068;5.198;2022-11-04T13:08:48;7.15;;;5.00;;
16880;SDS011;8557;52.068;5.198;2022-11-04T13:11:17;5.78;;;4.18;;
16880;SDS011;8557;52.068;5.198;2022-11-04T13:13:49;8.15;;;5.18;;
16880;SDS011;8557;52.068;5.198;2022-11-04T13:16:27;7.95;;;5.70;;
16880;SDS011;8557;52.068;5.198;2022-11-04T13:18:56;7.28;;;5.18;;
16880;SDS011;8557;52.068;5.198;2022-11-04T13:21:25;6.95;;;3.70;;
16880;SDS011;8557;52.068;5.198;2022-11-04T13:23:57;4.22;;;2.67;;
16880;SDS011;8557;52.068;5.198;2022-11-04T13:26:28;3.58;;;2.40;;
16880;SDS011;8557;52.068;5.198;2022-11-04T13:28:57;3.42;;;1.30;;
16880;SDS011;8557;52.068;5.198;2022-11-04T13:31:27;3.00;;;1.17;;
16880;SDS011;8557;52.068;5.198;2022-11-04T13:34:05;4.22;;;1.20;;
16880;SDS011;8557;52.068;5.198;2022-11-04T13:36:38;4.68;;;1.45;;
16880;SDS011;8557;52.068;5.198;2022-11-04T13:39:13;2.35;;;1.13;;
16880;SDS011;8557;52.068;5.198;2022-11-04T13:44:48;4.95;;;1.33;;
16880;SDS011;8557;52.068;5.198;2022-11-04T13:47:18;2.40;;;1.20;;
16880;SDS011;8557;52.068;5.198;2022-11-04T13:49:48;3.42;;;1.20;;
16880;SDS011;8557;52.068;5.198;2022-11-04T13:52:16;3.00;;;0.98;;
16880;SDS011;8557;52.068;5.198;2022-11-04T13:54:45;3.67;;;1.40;;
16880;SDS011;8557;52.068;5.198;2022-11-04T13:57:18;4.30;;;1.20;;
16880;SDS011;8557;52.068;5.198;2022-11-04T14:00:16;1.20;;;0.90;;
16880;SDS011;8557;52.068;5.198;2022-11-04T14:02:46;2.88;;;0.80;;
16880;SDS011;8557;52.068;5.198;2022-11-04T14:08:18;1.30;;;0.82;;
16880;SDS011;8557;52.068;5.198;2022-11-04T14:10:58;3.33;;;0.68;;
16880;SDS011;8557;52.068;5.198;2022-11-04T14:13:45;2.97;;;0.82;;
16880;SDS011;8557;52.068;5.198;2022-11-04T14:16:44;1.95;;;0.50;;
16880;SDS011;8557;52.068;5.198;2022-11-04T14:22:29;2.50;;;0.65;;
16880;SDS011;8557;52.068;5.198;2022-11-04T14:24:59;3.15;;;0.90;;
16880;SDS011;8557;52.068;5.198;2022-11-04T14:27:37;1.48;;;0.50;;
16880;SDS011;8557;52.068;5.198;2022-11-04T14:30:06;1.00;;;0.60;;
16880;SDS011;8557;52.068;5.198;2022-11-04T14:32:54;3.00;;;0.88;;
16880;SDS011;8557;52.068;5.198;2022-11-04T14:35:23;5.20;;;0.80;;
16880;SDS011;8557;52.068;5.198;2022-11-04T14:37:50;2.50;;;0.80;;
16880;SDS011;8557;52.068;5.198;2022-11-04T14:40:23;3.10;;;1.00;;
16880;SDS011;8557;52.068;5.198;2022-11-04T14:42:53;4.85;;;1.10;;
16880;SDS011;8557;52.068;5.198;2022-11-04T14:45:21;2.90;;;0.80;;
16880;SDS011;8557;52.068;5.198;2022-11-04T14:47:51;3.00;;;0.80;;
16880;SDS011;8557;52.068;5.198;2022-11-04T14:50:22;4.32;;;0.82;;
16880;SDS011;8557;52.068;5.198;2022-11-04T14:52:52;3.38;;;0.85;;
16880;SDS011;8557;52.068;5.198;2022-11-04T14:55:22;2.83;;;0.93;;
16880;SDS011;8557;52.068;5.198;2022-11-04T14:57:51;2.60;;;0.82;;
16880;SDS011;8557;52.068;5.198;2022-11-04T15:00:28;2.47;;;0.80;;
16880;SDS011;8557;52.068;5.198;2022-11-04T15:03:10;4.78;;;1.45;;
16880;SDS011;8557;52.068;5.198;2022-11-04T15:05:39;5.82;;;1.17;;
16880;SDS011;8557;52.068;5.198;2022-11-04T15:08:25;3.70;;;0.90;;
16880;SDS011;8557;52.068;5.198;2022-11-04T15:10:58;3.40;;;0.88;;
16880;SDS011;8557;52.068;5.198;2022-11-04T15:13:29;4.55;;;0.90;;
16880;SDS011;8557;52.068;5.198;2022-11-04T15:15:59;4.57;;;1.17;;
16880;SDS011;8557;52.068;5.198;2022-11-04T15:18:31;3.50;;;0.98;;
16880;SDS011;8557;52.068;5.198;2022-11-04T15:20:58;4.50;;;1.58;;
16880;SDS011;8557;52.068;5.198;2022-11-04T15:23:30;7.75;;;2.00;;
16880;SDS011;8557;52.068;5.198;2022-11-04T15:25:59;9.75;;;3.10;;
16880;SDS011;8557;52.068;5.198;2022-11-04T15:28:31;10.88;;;3.13;;
16880;SDS011;8557;52.068;5.198;2022-11-04T15:31:03;10.30;;;3.50;;
16880;SDS011;8557;52.068;5.198;2022-11-04T15:33:34;11.20;;;3.20;;
16880;SDS011;8557;52.068;5.198;2022-11-04T15:36:04;8.88;;;2.92;;
16880;SDS011;8557;52.068;5.198;2022-11-04T15:38:39;5.05;;;1.58;;